Time;durP1;ratioP1;P1;durP2;ratioP2;P2;SDS_P1;SDS_P2;PMS_P1;PMS_P2;Temp;Humidity;BMP_temperature;BMP_pressure;BME280_temperature;BME280_humidity;BME280_pressure;Samples;Min_cycle;Max_cycle;Signal;HPM_P1;HPM_P2
2021/06/24 00:12:02;;;;;;;7.43;4.15;;;;;;;20.13;100.00;100733.11;715179;1176;113817;-84
2021/06/24 00:27:04;;;;;;;8.80;4.47;;;;;;;20.00;100.00;100720.47;715553;1199;114653;-83
2021/06/24 00:42:08;;;;;;;6.90;3.87;;;;;;;19.91;100.00;100746.36;715296;1175;113929;-85
2021/06/24 00:57:10;;;;;;;6.80;3.68;;;;;;;19.91;100.00;100761.52;715411;1202;115366;-86
2021/06/24 01:12:13;;;;;;;6.43;3.55;;;;;;;19.92;100.00;100760.52;715835;1174;114220;-83
2021/06/24 01:27:15;;;;;;;7.30;3.68;;;;;;;19.86;100.00;100756.77;715746;1199;114553;-83
2021/06/24 01:42:17;;;;;;;8.95;4.30;;;;;;;19.93;100.00;100751.52;715925;1199;113797;-83
2021/06/24 01:57:22;;;;;;;5.53;3.68;;;;;;;19.79;100.00;100719.38;714976;1199;113820;-84
2021/06/24 02:12:25;;;;;;;9.28;4.83;;;;;;;19.75;100.00;100696.78;715899;1178;113915;-83
2021/06/24 02:27:27;;;;;;;9.07;4.00;;;;;;;19.64;100.00;100694.61;715991;1174;113825;-85
2021/06/24 02:42:29;;;;;;;11.85;3.98;;;;;;;19.63;100.00;100728.36;716309;1202;113699;-86
2021/06/24 02:57:33;;;;;;;9.30;4.10;;;;;;;19.66;100.00;100732.48;716075;1200;114006;-86
2021/06/24 03:12:36;;;;;;;9.38;3.50;;;;;;;19.97;100.00;100717.34;715141;1202;114353;-82
2021/06/24 03:27:38;;;;;;;13.30;4.05;;;;;;;20.08;100.00;100712.36;714310;1199;114391;-79
2021/06/24 03:42:40;;;;;;;7.60;3.78;;;;;;;20.29;100.00;100740.05;715409;1176;114038;-72
2021/06/24 03:57:43;;;;;;;6.93;4.05;;;;;;;20.36;100.00;100735.60;715889;1199;114254;-74
2021/06/24 04:12:45;;;;;;;7.95;3.75;;;;;;;20.33;100.00;100720.01;714132;1199;114195;-72
2021/06/24 04:27:48;;;;;;;9.37;4.40;;;;;;;20.55;100.00;100718.19;714414;1199;115025;-72
2021/06/24 04:42:50;;;;;;;8.65;3.78;;;;;;;20.99;100.00;100670.99;714581;1200;113938;-73
2021/06/24 04:57:52;;;;;;;7.77;3.40;;;;;;;21.17;100.00;100646.50;714376;1178;114246;-72
2021/06/24 05:12:54;;;;;;;5.73;2.90;;;;;;;21.99;100.00;100643.17;716651;1165;114002;-76
2021/06/24 05:27:57;;;;;;;5.23;2.97;;;;;;;22.87;100.00;100682.30;713675;1202;115221;-76
2021/06/24 05:42:59;;;;;;;7.60;3.38;;;;;;;22.89;100.00;100680.26;713918;1200;114655;-77
2021/06/24 05:58:01;;;;;;;3.95;2.33;;;;;;;23.24;100.00;100655.92;715090;1199;115209;-82
2021/06/24 06:13:05;;;;;;;6.58;2.33;;;;;;;23.65;100.00;100619.13;716218;1203;113872;-80
2021/06/24 06:28:08;;;;;;;5.98;3.10;;;;;;;23.99;100.00;100612.56;714018;1199;114099;-79
2021/06/24 06:43:12;;;;;;;7.38;2.80;;;;;;;24.21;100.00;100543.35;714374;1202;114641;-78
2021/06/24 06:58:14;;;;;;;7.75;2.80;;;;;;;24.55;100.00;100540.38;714301;1200;115764;-78
2021/06/24 07:13:16;;;;;;;6.87;3.17;;;;;;;25.21;100.00;100586.33;714605;1200;114158;-83
2021/06/24 07:28:19;;;;;;;7.35;3.10;;;;;;;25.06;100.00;100555.32;715641;1199;115227;-82
2021/06/24 07:43:21;;;;;;;8.43;3.90;;;;;;;24.74;100.00;100568.89;715383;1200;113238;-82
2021/06/24 07:58:23;;;;;;;7.00;3.90;;;;;;;24.08;100.00;100530.07;714435;1203;115047;-79
2021/06/24 08:13:27;;;;;;;5.93;4.10;;;;;;;24.05;100.00;100514.44;714817;1200;115997;-79
2021/06/24 08:28:30;;;;;;;9.27;4.87;;;;;;;23.85;100.00;100463.69;713988;1200;113791;-79
2021/06/24 08:43:32;;;;;;;10.83;5.33;;;;;;;23.73;100.00;100442.16;713886;1200;113962;-79
2021/06/24 08:58:34;;;;;;;30.08;17.10;;;;;;;23.48;100.00;100498.33;713718;1202;115049;-77
2021/06/24 09:13:38;;;;;;;10.70;5.67;;;;;;;23.50;100.00;100456.11;713824;1199;114710;-80
2021/06/24 09:28:47;;;;;;;10.10;6.38;;;;;;;23.41;100.00;100475.12;715149;1199;115554;-82
2021/06/24 09:43:54;;;;;;;10.10;6.03;;;;;;;23.41;100.00;100496.53;715697;1200;114722;-77
2021/06/24 09:58:58;;;;;;;13.37;5.67;;;;;;;23.61;100.00;100527.72;713814;1199;115192;-77
2021/06/24 10:14:01;;;;;;;8.20;5.03;;;;;;;23.85;100.00;100555.56;714117;1203;114182;-77
2021/06/24 10:29:20;;;;;;;8.33;5.50;;;;;;;23.99;100.00;100537.55;713965;1199;113635;-77
2021/06/24 10:44:59;;;;;;;10.60;6.65;;;;;;;23.80;100.00;100542.00;713909;1202;114212;-77
2021/06/24 11:00:29;;;;;;;12.95;8.93;;;;;;;24.71;100.00;100525.59;713749;1184;115188;-77
2021/06/24 11:15:50;;;;;;;13.43;10.03;;;;;;;25.18;100.00;100538.44;713864;1202;114501;-76
2021/06/24 11:31:04;;;;;;;13.75;10.40;;;;;;;24.79;100.00;100536.02;713826;1200;114765;-73
2021/06/24 11:46:07;;;;;;;15.98;10.98;;;;;;;25.72;100.00;100523.27;714158;1199;114163;-73
2021/06/24 12:01:32;;;;;;;17.38;13.10;;;;;;;25.33;100.00;100527.32;713850;1202;114198;-73
2021/06/24 12:16:32;;;;;;;17.60;13.25;;;;;;;25.53;100.00;100510.95;713839;1199;114586;-75
2021/06/24 12:31:34;;;;;;;19.70;13.53;;;;;;;25.76;100.00;100496.74;713799;1199;115132;-73
2021/06/24 12:46:37;;;;;;;18.05;12.18;;;;;;;27.10;100.00;100471.99;713736;1184;114052;-77
2021/06/24 13:01:43;;;;;;;19.95;13.83;;;;;;;27.52;100.00;100477.88;713908;1178;115069;-77
2021/06/24 13:16:53;;;;;;;18.80;14.35;;;;;;;27.65;100.00;100467.84;713999;1203;115041;-75
2021/06/24 13:31:55;;;;;;;17.53;13.70;;;;;;;27.38;100.00;100461.23;714193;1199;115575;-77
2021/06/24 13:46:57;;;;;;;19.20;14.28;;;;;;;27.58;98.48;100437.56;714566;1175;114124;-77
2021/06/24 14:02:01;;;;;;;21.60;15.83;;;;;;;27.71;99.22;100419.20;714576;1199;114346;-77
2021/06/24 14:17:04;;;;;;;17.45;13.63;;;;;;;27.94;99.57;100420.06;717120;1178;113999;-76
2021/06/24 14:32:06;;;;;;;22.45;14.15;;;;;;;28.71;98.03;100394.09;714914;1199;114713;-77
2021/06/24 14:47:09;;;;;;;23.50;15.18;;;;;;;30.35;95.18;100390.18;717454;1200;114128;-78
2021/06/24 15:02:12;;;;;;;21.60;15.63;;;;;;;30.04;92.69;100374.64;718956;1200;114589;-77
2021/06/24 15:17:14;;;;;;;21.53;15.03;;;;;;;30.20;90.49;100372.02;714348;1203;114203;-77
2021/06/24 15:32:17;;;;;;;36.50;22.53;;;;;;;29.81;90.34;100364.22;714736;1199;115467;-77
2021/06/24 15:47:20;;;;;;;21.18;15.05;;;;;;;29.43;91.21;100358.03;714747;1188;114058;-77
2021/06/24 16:02:22;;;;;;;23.30;17.87;;;;;;;29.20;90.95;100333.80;714643;1200;115931;-75
2021/06/24 16:17:24;;;;;;;21.18;14.75;;;;;;;29.35;91.78;100316.93;714996;1177;114140;-79
2021/06/24 16:32:27;;;;;;;23.33;17.43;;;;;;;29.20;91.15;100300.58;714616;1199;114767;-79
2021/06/24 16:47:29;;;;;;;24.35;16.58;;;;;;;28.90;91.96;100301.96;715053;1200;115054;-86
2021/06/24 17:02:31;;;;;;;49.73;24.53;;;;;;;28.85;92.14;100301.91;716208;1199;114964;-85
2021/06/24 17:17:35;;;;;;;24.27;16.43;;;;;;;28.61;92.94;100296.81;714675;1199;115702;-79
2021/06/24 17:32:38;;;;;;;25.93;17.78;;;;;;;28.47;94.79;100304.52;714209;1199;114194;-82
2021/06/24 17:47:41;;;;;;;20.90;13.45;;;;;;;28.19;94.88;100289.37;716614;1182;114660;-82
2021/06/24 18:02:43;;;;;;;18.47;13.87;;;;;;;27.64;97.27;100294.61;716083;1178;114244;-73
2021/06/24 18:17:46;;;;;;;20.97;13.43;;;;;;;27.32;100.00;100321.30;715132;1174;114173;-83
2021/06/24 18:32:49;;;;;;;20.05;13.20;;;;;;;27.06;100.00;100361.28;716310;1199;115651;-83
2021/06/24 18:47:51;;;;;;;20.78;14.35;;;;;;;26.79;100.00;100387.98;716333;1200;114330;-84
2021/06/24 19:02:53;;;;;;;19.68;14.60;;;;;;;26.31;100.00;100366.59;716291;1199;114345;-85
2021/06/24 19:18:00;;;;;;;31.50;20.65;;;;;;;25.89;100.00;100366.75;715064;1200;114683;-81
2021/06/24 19:33:06;;;;;;;29.80;19.90;;;;;;;25.14;100.00;100362.81;716501;1199;115178;-76
2021/06/24 19:48:09;;;;;;;23.20;14.30;;;;;;;24.65;100.00;100342.25;714941;1199;114843;-76
2021/06/24 20:03:11;;;;;;;31.25;16.13;;;;;;;24.53;100.00;100360.94;714758;1203;115067;-75
2021/06/24 20:18:13;;;;;;;31.53;21.30;;;;;;;24.46;100.00;100372.81;714526;1200;114627;-76
2021/06/24 20:33:40;;;;;;;25.40;17.37;;;;;;;24.19;100.00;100357.86;714830;1202;116073;-77
2021/06/24 20:48:43;;;;;;;27.15;18.15;;;;;;;23.76;100.00;100372.89;714311;1200;114379;-76
2021/06/24 21:03:46;;;;;;;27.95;19.48;;;;;;;23.56;100.00;100353.52;714557;1199;114324;-76
2021/06/24 21:18:49;;;;;;;23.80;16.83;;;;;;;23.51;100.00;100345.33;714508;1203;115283;-75
2021/06/24 21:33:51;;;;;;;27.93;17.85;;;;;;;23.36;100.00;100338.45;714480;1203;115761;-77
2021/06/24 21:48:53;;;;;;;27.20;17.97;;;;;;;23.31;100.00;100318.74;715162;1177;114684;-76
2021/06/24 22:03:56;;;;;;;23.17;16.03;;;;;;;23.19;100.00;100262.45;714257;1199;114987;-76
2021/06/24 22:18:58;;;;;;;21.15;15.35;;;;;;;22.94;100.00;100241.83;714115;1203;115180;-77
2021/06/24 22:34:00;;;;;;;21.77;14.25;;;;;;;22.68;100.00;100229.48;714299;1203;114814;-77
2021/06/24 22:49:02;;;;;;;22.30;15.75;;;;;;;22.47;100.00;100236.80;714231;1185;114347;-76
2021/06/24 23:04:05;;;;;;;22.53;15.23;;;;;;;22.39;100.00;100269.93;714318;1199;114477;-76
2021/06/24 23:19:07;;;;;;;18.67;13.87;;;;;;;21.91;100.00;100305.05;714305;1176;113765;-76
2021/06/24 23:34:09;;;;;;;18.90;12.35;;;;;;;21.71;100.00;100300.56;714250;1199;115884;-76
2021/06/24 23:49:11;;;;;;;23.23;14.90;;;;;;;21.63;100.00;100308.80;714228;1200;114196;-78
